< < Back
Terminal Aerodrome Forecast


Current Version              Previous Versions:   1  2  3  4  5  6  7  8  9  

Terminal Aerodrome Forecast

834
FTUS42 KJAX 201700
TAFGNV
TAF
KGNV 201720Z 2018/2118 33008G16KT P6SM VCTS SCT040CB
     FM201900 27008G12KT P6SM VCTS SCT040CB
      TEMPO 2019/2023 3SM TSRA BKN040CB
     FM202300 24004KT P6SM SCT250
     FM210600 VRB02KT P6SM FEW250
     FM211500 27005KT P6SM SCT030=



Latest METAR

106
SAUS70 KWBC 210200 RRA
MTRGNV
METAR KGNV 210153Z 25013KT 10SM CLR 28/24 A3008 RMK AO2 SLP182
T02830239


USA.gov is the U.S. government's official web portal to all federal, state and local government web resources and services.